Time;durP1;ratioP1;P1;durP2;ratioP2;P2;SDS_P1;SDS_P2;PMS_P1;PMS_P2;Temp;Humidity;BMP_temperature;BMP_pressure;BME280_temperature;BME280_humidity;BME280_pressure;Samples;Min_cycle;Max_cycle;Signal;HPM_P1;HPM_P2
2024/02/11 00:00:29;;;;;;;1999.90;999.90;;;;;;;11.01;64.01;95755.38;5134432;27;20048;-65
2024/02/11 00:02:57;;;;;;;1999.90;999.90;;;;;;;11.05;64.14;95762.13;5134335;27;20050;-68
2024/02/11 00:05:26;;;;;;;1999.90;999.90;;;;;;;11.06;64.38;95765.59;5134167;27;20416;-67
2024/02/11 00:07:53;;;;;;;1999.90;999.90;;;;;;;11.09;64.77;95765.44;5134228;27;20047;-65
2024/02/11 00:10:20;;;;;;;1999.90;999.90;;;;;;;11.12;64.83;95770.53;5134116;27;20050;-63
2024/02/11 00:12:47;;;;;;;1999.90;999.90;;;;;;;11.18;64.74;95771.97;5134157;27;20043;-66
2024/02/11 00:15:14;;;;;;;1999.90;999.90;;;;;;;11.21;65.00;95763.94;5134105;27;20508;-66
2024/02/11 00:17:45;;;;;;;1999.90;999.90;;;;;;;11.20;65.06;95773.56;5134308;27;20051;-63
2024/02/11 00:20:15;;;;;;;;;;;;;;;11.25;65.19;95768.09;5134526;27;20059;-64
2024/02/11 00:22:42;;;;;;;1999.90;999.90;;;;;;;11.30;64.98;95763.47;5133569;27;19927;-67
2024/02/11 00:25:10;;;;;;;1999.90;999.90;;;;;;;11.34;65.04;95769.38;5133960;27;20122;-65
2024/02/11 00:27:44;;;;;;;1999.90;999.90;;;;;;;11.35;64.92;95760.59;5134096;27;20048;-66
2024/02/11 00:30:12;;;;;;;1999.90;999.90;;;;;;;11.35;64.79;95756.19;5133974;27;20399;-66
2024/02/11 00:32:39;;;;;;;1999.90;999.90;;;;;;;11.30;66.27;95745.16;5134155;27;20134;-64
2024/02/11 00:35:08;;;;;;;1999.90;999.90;;;;;;;11.34;66.01;95744.03;5134073;27;20084;-65
2024/02/11 00:37:35;;;;;;;1999.90;999.90;;;;;;;11.34;66.54;95767.59;5133911;27;20050;-67
2024/02/11 00:40:05;;;;;;;1999.90;999.90;;;;;;;11.32;66.50;95764.22;5133808;27;20442;-66
2024/02/11 00:42:34;;;;;;;1999.90;999.90;;;;;;;11.34;67.16;95756.28;5133825;27;20382;-68
2024/02/11 00:45:04;;;;;;;1999.90;999.90;;;;;;;11.32;67.13;95740.66;5133923;27;20065;-67
2024/02/11 00:47:31;;;;;;;1999.90;999.90;;;;;;;11.30;67.56;95739.06;5134068;27;20461;-67
2024/02/11 00:49:58;;;;;;;1999.90;999.90;;;;;;;11.28;67.80;95746.97;5133839;27;20134;-64
2024/02/11 00:52:26;;;;;;;1999.90;999.90;;;;;;;11.30;67.94;95739.91;5133727;27;20039;-66
2024/02/11 00:54:54;;;;;;;1999.90;999.90;;;;;;;11.28;68.08;95731.28;5133744;27;20567;-68
2024/02/11 00:57:21;;;;;;;1999.90;999.90;;;;;;;11.25;68.59;95720.97;5133537;27;20058;-66
2024/02/11 00:59:48;;;;;;;1999.90;999.90;;;;;;;11.22;68.93;95724.59;5133719;27;20054;-65
2024/02/11 01:02:15;;;;;;;1999.90;999.90;;;;;;;11.20;69.08;95717.78;5133687;27;20560;-66
2024/02/11 01:04:42;;;;;;;1999.90;999.90;;;;;;;11.26;68.71;95714.81;5133850;27;20397;-66
2024/02/11 01:07:09;;;;;;;1999.90;999.90;;;;;;;11.31;68.89;95709.31;5133774;27;20138;-66
2024/02/11 01:09:37;;;;;;;1999.90;999.90;;;;;;;11.30;68.80;95711.09;5133470;27;20046;-67
2024/02/11 01:12:05;;;;;;;1999.90;999.90;;;;;;;11.31;68.54;95712.78;5133889;27;20044;-64
2024/02/11 01:14:32;;;;;;;1999.90;999.90;;;;;;;11.24;68.93;95722.75;5133608;27;20043;-64
2024/02/11 01:16:59;;;;;;;1999.90;999.90;;;;;;;11.27;69.00;95721.75;5133554;27;20051;-65
2024/02/11 01:19:26;;;;;;;1999.90;999.90;;;;;;;11.27;69.11;95731.34;5133454;27;20043;-68
2024/02/11 01:21:54;;;;;;;1999.90;999.90;;;;;;;11.24;69.23;95733.22;5133534;27;20104;-66
2024/02/11 01:24:21;;;;;;;1999.90;999.90;;;;;;;11.23;69.37;95725.47;5133759;27;20043;-65
2024/02/11 01:26:49;;;;;;;1999.90;999.90;;;;;;;11.28;69.46;95733.03;5133454;27;20047;-66
2024/02/11 01:29:17;;;;;;;1999.90;999.90;;;;;;;11.24;69.88;95725.38;5133518;27;20057;-63
2024/02/11 01:31:44;;;;;;;1999.90;999.90;;;;;;;11.27;69.76;95719.13;5133335;27;20134;-66
2024/02/11 01:34:11;;;;;;;1999.90;999.90;;;;;;;11.22;70.00;95724.59;5134528;27;20483;-64
2024/02/11 01:36:38;;;;;;;1999.90;999.90;;;;;;;11.20;70.14;95723.81;5137048;27;20043;-64
2024/02/11 01:39:05;;;;;;;1999.90;999.90;;;;;;;11.23;69.86;95730.69;5137339;27;20054;-66
2024/02/11 01:41:32;;;;;;;1999.90;999.90;;;;;;;11.20;69.98;95739.53;5136935;27;20526;-66
2024/02/11 01:44:00;;;;;;;1999.90;999.90;;;;;;;11.20;69.99;95733.47;5137055;27;20039;-67
2024/02/11 01:46:27;;;;;;;1999.90;999.90;;;;;;;11.25;69.71;95739.28;5136813;27;20130;-67
2024/02/11 01:48:55;;;;;;;1999.90;999.90;;;;;;;11.27;69.47;95729.59;5136846;27;20050;-66
2024/02/11 01:51:22;;;;;;;1999.90;999.90;;;;;;;11.25;69.32;95723.59;5137040;27;20130;-63
2024/02/11 01:53:50;;;;;;;1999.90;999.90;;;;;;;11.28;68.40;95726.03;5136667;27;20120;-63
2024/02/11 01:56:20;;;;;;;1999.90;999.90;;;;;;;11.31;68.19;95725.88;5136363;27;20058;-66
2024/02/11 01:58:49;;;;;;;1999.90;999.90;;;;;;;11.40;67.34;95715.81;5136746;27;20555;-66
2024/02/11 02:01:18;;;;;;;1999.90;999.90;;;;;;;11.43;67.18;95707.81;5136872;27;20077;-67
2024/02/11 02:03:48;;;;;;;1999.90;999.90;;;;;;;11.45;66.61;95708.56;5136611;27;20054;-67
2024/02/11 02:06:17;;;;;;;1999.90;999.90;;;;;;;11.45;66.39;95709.44;5136312;27;20141;-66
2024/02/11 02:08:43;;;;;;;1999.90;999.90;;;;;;;11.46;66.05;95712.88;5136513;27;20392;-64
2024/02/11 02:11:11;;;;;;;1999.90;999.90;;;;;;;11.41;65.59;95701.81;5136441;27;20139;-67
2024/02/11 02:13:38;;;;;;;1999.90;999.90;;;;;;;11.41;65.20;95702.66;5136492;27;20086;-67
2024/02/11 02:16:07;;;;;;;1999.90;999.90;;;;;;;11.50;64.70;95702.16;5136160;27;20484;-68
2024/02/11 02:18:36;;;;;;;1999.90;999.90;;;;;;;11.50;64.40;95696.09;5136345;27;20051;-64
2024/02/11 02:21:06;;;;;;;1999.90;999.90;;;;;;;11.49;64.48;95703.09;5136220;27;20137;-67
2024/02/11 02:23:34;;;;;;;1999.90;999.90;;;;;;;11.50;64.43;95698.72;5136145;27;20133;-63
2024/02/11 02:26:07;;;;;;;1999.90;999.90;;;;;;;11.60;64.11;95696.41;5136253;27;20047;-68
2024/02/11 02:28:34;;;;;;;1999.90;999.90;;;;;;;11.63;63.91;95702.31;5136296;27;20054;-66
2024/02/11 02:31:02;;;;;;;1999.90;999.90;;;;;;;11.58;64.24;95714.81;5136068;27;20057;-66
2024/02/11 02:33:30;;;;;;;1999.90;999.90;;;;;;;11.61;64.17;95705.94;5136021;27;20130;-63
2024/02/11 02:35:57;;;;;;;1999.90;999.90;;;;;;;11.66;63.89;95703.06;5136287;27;20047;-63
2024/02/11 02:38:24;;;;;;;1999.90;999.90;;;;;;;11.68;63.94;95701.22;5136052;27;20099;-65
2024/02/11 02:40:52;;;;;;;1999.90;999.90;;;;;;;11.69;63.90;95710.75;5135983;27;20134;-65
2024/02/11 02:43:19;;;;;;;1999.90;999.90;;;;;;;11.66;64.06;95705.69;5135886;27;20500;-66
2024/02/11 02:45:47;;;;;;;1999.90;999.90;;;;;;;11.72;64.13;95710.59;5135084;27;20069;-66
2024/02/11 02:48:14;;;;;;;1999.90;999.90;;;;;;;11.72;64.18;95716.69;5135604;27;20047;-68
2024/02/11 02:50:52;;;;;;;1999.90;999.90;;;;;;;11.69;64.61;95716.88;5135559;27;20075;-64
2024/02/11 02:53:19;;;;;;;1999.90;999.90;;;;;;;11.70;64.48;95713.31;5135578;27;20050;-64
2024/02/11 02:55:46;;;;;;;1999.90;999.90;;;;;;;11.72;64.60;95718.47;5135429;27;20553;-63
2024/02/11 02:58:15;;;;;;;1999.90;999.90;;;;;;;11.70;64.64;95715.06;5135583;27;20557;-65
2024/02/11 03:00:42;;;;;;;1999.90;999.90;;;;;;;11.67;64.69;95717.84;5135362;27;20043;-65
2024/02/11 03:03:09;;;;;;;1999.90;999.90;;;;;;;11.71;64.62;95722.00;5135288;27;20492;-67
2024/02/11 03:05:37;;;;;;;1999.90;999.90;;;;;;;11.70;64.45;95725.53;5135277;27;20045;-66
2024/02/11 03:08:06;;;;;;;1999.90;999.90;;;;;;;11.66;64.93;95734.50;5135407;27;20050;-67
2024/02/11 03:10:34;;;;;;;1999.90;999.90;;;;;;;11.68;64.62;95730.03;5135125;27;20048;-64
2024/02/11 03:13:01;;;;;;;1999.90;999.90;;;;;;;11.66;64.75;95729.28;5135011;27;20484;-63
2024/02/11 03:15:30;;;;;;;1999.90;999.90;;;;;;;11.66;64.66;95717.03;5135043;27;20061;-63
2024/02/11 03:17:58;;;;;;;1999.90;999.90;;;;;;;11.67;64.56;95718.72;5135368;27;20054;-65
2024/02/11 03:20:27;;;;;;;1999.90;999.90;;;;;;;11.66;64.69;95726.66;5135143;27;20126;-64
2024/02/11 03:22:54;;;;;;;1999.90;999.90;;;;;;;11.66;64.51;95719.66;5135094;27;20104;-63
2024/02/11 03:25:21;;;;;;;1999.90;999.90;;;;;;;11.65;64.82;95732.84;5134928;27;20046;-67
2024/02/11 03:27:54;;;;;;;1999.90;999.90;;;;;;;11.62;65.52;95732.06;5134864;27;20138;-64
2024/02/11 03:30:21;;;;;;;1999.90;999.90;;;;;;;11.66;66.27;95722.28;5135240;27;20055;-67
2024/02/11 03:32:49;;;;;;;1999.90;999.90;;;;;;;11.73;65.94;95728.00;5134891;27;20116;-68
2024/02/11 03:35:17;;;;;;;1999.90;999.90;;;;;;;11.73;66.77;95723.59;5134733;27;20450;-65
2024/02/11 03:37:44;;;;;;;1999.90;999.90;;;;;;;11.68;67.41;95728.25;5134827;27;20519;-65
2024/02/11 03:40:16;;;;;;;1999.90;999.90;;;;;;;11.71;67.08;95727.25;5134802;27;20059;-63
2024/02/11 03:42:43;;;;;;;1999.90;999.90;;;;;;;11.67;67.67;95720.47;5134787;27;20062;-66
2024/02/11 03:45:11;;;;;;;1999.90;999.90;;;;;;;11.69;68.05;95708.16;5134548;27;20115;-66
2024/02/11 03:47:38;;;;;;;1999.90;999.90;;;;;;;11.67;68.17;95712.63;5134422;27;20053;-66
2024/02/11 03:50:10;;;;;;;1999.90;999.90;;;;;;;11.67;68.11;95702.13;5134489;27;20049;-67
2024/02/11 03:52:37;;;;;;;1999.90;999.90;;;;;;;11.59;68.47;95699.97;5134520;27;20043;-66
2024/02/11 03:55:10;;;;;;;1999.90;999.90;;;;;;;11.59;68.66;95692.13;5134450;27;20047;-66
2024/02/11 03:57:38;;;;;;;1999.90;999.90;;;;;;;11.58;68.96;95698.25;5133470;27;20051;-66
2024/02/11 04:00:24;;;;;;;1999.90;999.90;;;;;;;11.57;69.29;95693.97;5134645;27;20055;-66
2024/02/11 04:02:52;;;;;;;1999.90;999.90;;;;;;;11.61;69.18;95690.22;5134234;27;20074;-66
2024/02/11 04:05:22;;;;;;;1999.90;999.90;;;;;;;11.62;69.60;95682.28;5134228;27;20043;-67
2024/02/11 04:07:50;;;;;;;1999.90;999.90;;;;;;;11.65;69.52;95672.59;5134272;27;20055;-64
2024/02/11 04:10:22;;;;;;;1999.90;999.90;;;;;;;11.59;70.02;95663.28;5134290;27;20332;-67
2024/02/11 04:12:52;;;;;;;1999.90;999.90;;;;;;;11.61;69.98;95669.28;5134267;27;20058;-67
2024/02/11 04:15:22;;;;;;;1999.90;999.90;;;;;;;11.60;70.31;95662.34;5134403;27;20147;-68
2024/02/11 04:17:50;;;;;;;1999.90;999.90;;;;;;;11.56;70.82;95677.38;5134111;27;20039;-68
2024/02/11 04:20:23;;;;;;;1999.90;999.90;;;;;;;11.61;71.02;95674.50;5134149;27;20123;-66
2024/02/11 04:23:07;;;;;;;1999.90;999.90;;;;;;;11.62;71.15;95668.38;5134088;27;20049;-66
2024/02/11 04:25:36;;;;;;;1999.90;999.90;;;;;;;11.60;71.26;95660.59;5133824;27;20435;-64
2024/02/11 04:28:05;;;;;;;1999.90;999.90;;;;;;;11.59;71.44;95658.06;5134024;27;20100;-67
2024/02/11 04:30:36;;;;;;;1999.90;999.90;;;;;;;11.59;71.64;95653.66;5133967;27;20134;-67
2024/02/11 04:33:04;;;;;;;1999.90;999.90;;;;;;;11.57;72.01;95659.91;5134043;27;20129;-65
2024/02/11 04:35:31;;;;;;;1999.90;999.90;;;;;;;11.62;71.76;95669.19;5134005;27;20053;-67
2024/02/11 04:37:59;;;;;;;1999.90;999.90;;;;;;;11.56;72.16;95660.84;5134007;27;20075;-67
2024/02/11 04:40:28;;;;;;;1999.90;999.90;;;;;;;11.49;72.67;95657.72;5134164;27;20046;-64
2024/02/11 04:42:56;;;;;;;1999.90;999.90;;;;;;;11.45;72.74;95643.97;5133946;27;20385;-64
2024/02/11 04:45:24;;;;;;;1999.90;999.90;;;;;;;11.43;73.39;95652.81;5133908;27;20082;-64
2024/02/11 04:47:54;;;;;;;1999.90;999.90;;;;;;;11.42;73.41;95644.13;5133678;27;20086;-67
2024/02/11 04:50:22;;;;;;;1999.90;999.90;;;;;;;11.44;73.40;95641.44;5133906;27;20508;-64
2024/02/11 04:52:55;;;;;;;1999.90;999.90;;;;;;;11.42;73.83;95644.13;5133741;27;20070;-66
2024/02/11 04:55:24;;;;;;;1999.90;999.90;;;;;;;11.37;74.12;95644.38;5133762;27;20047;-64
2024/02/11 04:57:52;;;;;;;1999.90;999.90;;;;;;;11.36;74.49;95642.69;5133810;27;20522;-67
2024/02/11 05:00:26;;;;;;;1999.90;999.90;;;;;;;11.32;74.55;95643.78;5133728;27;20126;-65
2024/02/11 05:02:53;;;;;;;1999.90;999.90;;;;;;;11.36;74.49;95637.47;5133635;27;20051;-65
2024/02/11 05:05:25;;;;;;;1999.90;999.90;;;;;;;11.41;74.52;95642.41;5133615;27;20118;-64
2024/02/11 05:07:53;;;;;;;1999.90;999.90;;;;;;;11.38;74.85;95640.81;5134260;27;20047;-67
2024/02/11 05:10:21;;;;;;;1999.90;999.90;;;;;;;11.42;74.97;95645.91;5137533;27;20049;-64
2024/02/11 05:12:49;;;;;;;1999.90;999.90;;;;;;;11.42;75.20;95656.38;5137804;27;20047;-67
2024/02/11 05:15:20;;;;;;;1999.90;999.90;;;;;;;11.40;75.14;95655.59;5137609;27;20043;-67
2024/02/11 05:17:48;;;;;;;;;;;;;;;11.41;75.51;95671.22;5137917;27;20050;-68
2024/02/11 05:20:21;;;;;;;1999.90;999.90;;;;;;;11.32;76.06;95662.09;5137366;27;19924;-64
2024/02/11 05:22:49;;;;;;;1999.90;999.90;;;;;;;11.34;76.46;95654.16;5137411;27;20050;-65
2024/02/11 05:25:19;;;;;;;1999.90;999.90;;;;;;;11.35;76.25;95663.72;5137238;27;20548;-67
2024/02/11 05:27:51;;;;;;;1999.90;999.90;;;;;;;11.34;76.39;95673.34;5137177;27;20059;-65
2024/02/11 05:30:19;;;;;;;1999.90;999.90;;;;;;;11.35;76.62;95687.28;5137198;27;20096;-66
2024/02/11 05:32:47;;;;;;;1999.90;999.90;;;;;;;11.31;76.77;95689.22;5137368;27;20465;-64
2024/02/11 05:35:17;;;;;;;1999.90;999.90;;;;;;;11.35;76.87;95692.53;5137106;27;20054;-65
2024/02/11 05:37:46;;;;;;;1999.90;999.90;;;;;;;11.37;76.87;95693.28;5137023;27;20040;-67
2024/02/11 05:40:14;;;;;;;1999.90;999.90;;;;;;;11.41;77.06;95696.59;5137410;27;20047;-64
2024/02/11 05:42:42;;;;;;;1999.90;999.90;;;;;;;11.44;76.98;95697.25;5137251;27;20062;-64
2024/02/11 05:45:10;;;;;;;1999.90;999.90;;;;;;;11.45;76.92;95696.34;5136983;27;20051;-62
2024/02/11 05:47:38;;;;;;;1999.90;999.90;;;;;;;11.46;76.88;95686.69;5136894;27;20054;-66
2024/02/11 05:50:08;;;;;;;1999.90;999.90;;;;;;;11.49;76.73;95686.53;5136958;27;20437;-66
2024/02/11 05:52:35;;;;;;;1999.90;999.90;;;;;;;11.47;76.67;95686.59;5136798;27;20071;-64
2024/02/11 05:55:03;;;;;;;1999.90;999.90;;;;;;;11.57;76.33;95693.97;5136730;27;20054;-66
2024/02/11 05:57:30;;;;;;;1999.90;999.90;;;;;;;11.59;76.20;95692.13;5136591;27;20051;-66
2024/02/11 05:59:58;;;;;;;1999.90;999.90;;;;;;;11.57;76.01;95686.09;5136699;27;20096;-64
2024/02/11 06:02:26;;;;;;;1999.90;999.90;;;;;;;11.65;75.79;95701.41;5136650;27;20127;-65
2024/02/11 06:04:55;;;;;;;1999.90;999.90;;;;;;;11.72;75.39;95702.75;5136741;27;20401;-66
2024/02/11 06:07:22;;;;;;;1999.90;999.90;;;;;;;11.79;75.16;95704.06;5136401;27;20074;-64
2024/02/11 06:09:49;;;;;;;1999.90;999.90;;;;;;;11.79;74.89;95697.97;5136433;27;20055;-67
2024/02/11 06:12:16;;;;;;;1999.90;999.90;;;;;;;11.86;74.07;95718.53;5136369;27;20047;-65
2024/02/11 06:14:44;;;;;;;1999.90;999.90;;;;;;;11.87;73.87;95714.13;5136520;27;20047;-65
2024/02/11 06:17:12;;;;;;;1999.90;999.90;;;;;;;11.92;73.41;95712.09;5136347;27;20075;-65
2024/02/11 06:19:40;;;;;;;1999.90;999.90;;;;;;;12.00;73.04;95715.13;5135484;27;20100;-67
2024/02/11 06:22:09;;;;;;;1999.90;999.90;;;;;;;12.11;72.37;95721.56;5136257;27;20047;-64
2024/02/11 06:24:37;;;;;;;1999.90;999.90;;;;;;;12.17;71.95;95726.47;5136130;27;20129;-68
2024/02/11 06:27:05;;;;;;;1999.90;999.90;;;;;;;12.20;71.77;95725.44;5135991;27;20058;-66
2024/02/11 06:29:32;;;;;;;1999.90;999.90;;;;;;;12.29;71.38;95713.56;5136266;27;20047;-67
2024/02/11 06:31:59;;;;;;;1999.90;999.90;;;;;;;12.31;71.20;95723.03;5135976;27;20134;-65
2024/02/11 06:34:26;;;;;;;1999.90;999.90;;;;;;;12.38;70.97;95724.34;5135898;27;20050;-64
2024/02/11 06:36:53;;;;;;;1999.90;999.90;;;;;;;12.41;70.50;95725.13;5135952;27;20043;-67
2024/02/11 06:39:24;;;;;;;1999.90;999.90;;;;;;;12.40;70.29;95729.50;5135972;27;20055;-66
2024/02/11 06:41:52;;;;;;;1999.90;999.90;;;;;;;12.46;69.98;95726.53;5135936;27;20043;-68
2024/02/11 06:44:26;;;;;;;1999.90;999.90;;;;;;;12.54;69.20;95733.09;5135657;27;20082;-64
2024/02/11 06:46:54;;;;;;;1999.90;999.90;;;;;;;12.55;69.01;95740.88;5135915;27;20046;-65
2024/02/11 06:49:23;;;;;;;1999.90;999.90;;;;;;;12.66;68.44;95728.91;5135701;27;20090;-65
2024/02/11 06:51:51;;;;;;;1999.90;999.90;;;;;;;12.66;67.98;95723.66;5135541;27;20050;-64
2024/02/11 06:54:18;;;;;;;1999.90;999.90;;;;;;;12.76;67.53;95736.16;5135600;27;20051;-63
2024/02/11 06:56:49;;;;;;;1999.90;999.90;;;;;;;12.75;67.81;95736.25;5135415;27;20057;-62
2024/02/11 06:59:17;;;;;;;1999.90;999.90;;;;;;;12.73;67.97;95730.22;5135530;27;20130;-64
2024/02/11 07:01:45;;;;;;;1999.90;999.90;;;;;;;12.80;67.75;95742.06;5135457;27;20086;-68
2024/02/11 07:04:12;;;;;;;1999.90;999.90;;;;;;;12.75;67.82;95737.09;5135348;27;20584;-64
2024/02/11 07:06:45;;;;;;;1999.90;999.90;;;;;;;12.83;67.55;95741.03;5135349;27;20054;-65
2024/02/11 07:09:13;;;;;;;1999.90;999.90;;;;;;;12.87;67.34;95737.28;5135188;27;20105;-66
2024/02/11 07:11:40;;;;;;;1999.90;999.90;;;;;;;12.91;66.87;95723.03;5135282;27;20047;-65
2024/02/11 07:14:10;;;;;;;1999.90;999.90;;;;;;;12.93;65.29;95729.03;5135241;27;20099;-65
2024/02/11 07:16:38;;;;;;;1999.90;999.90;;;;;;;12.92;65.37;95708.13;5135437;27;20549;-64
2024/02/11 07:19:07;;;;;;;1999.90;999.90;;;;;;;12.89;65.13;95724.94;5135061;27;20457;-67
2024/02/11 07:21:36;;;;;;;1999.90;999.90;;;;;;;12.91;64.93;95712.53;5135457;27;20553;-68
2024/02/11 07:24:06;;;;;;;1999.90;999.90;;;;;;;12.84;64.59;95719.94;5134938;27;20423;-65
2024/02/11 07:26:36;;;;;;;1999.90;999.90;;;;;;;12.89;64.13;95723.13;5134996;27;20066;-64
2024/02/11 07:29:04;;;;;;;1999.90;999.90;;;;;;;12.99;63.79;95722.56;5134816;27;20047;-64
2024/02/11 07:31:35;;;;;;;1999.90;999.90;;;;;;;13.03;63.34;95729.31;5134876;27;20043;-65
2024/02/11 07:34:03;;;;;;;1999.90;999.90;;;;;;;13.02;63.06;95725.88;5135142;27;20134;-67
2024/02/11 07:36:30;;;;;;;1999.90;999.90;;;;;;;13.10;62.78;95746.38;5134800;27;20047;-65
2024/02/11 07:38:58;;;;;;;1999.90;999.90;;;;;;;13.16;62.67;95737.31;5134922;27;20397;-65
2024/02/11 07:41:25;;;;;;;1999.90;999.90;;;;;;;13.18;63.13;95743.28;5135067;27;20119;-66
2024/02/11 07:43:54;;;;;;;1999.90;999.90;;;;;;;13.25;62.97;95736.72;5134614;27;20438;-62
2024/02/11 07:46:23;;;;;;;1999.90;999.90;;;;;;;13.20;63.54;95738.81;5134825;27;20112;-66
2024/02/11 07:48:52;;;;;;;1999.90;999.90;;;;;;;13.25;63.06;95744.59;5134545;27;20051;-65
2024/02/11 07:51:21;;;;;;;1999.90;999.90;;;;;;;13.29;62.80;95737.38;5134615;27;20122;-66
2024/02/11 07:53:50;;;;;;;1999.90;999.90;;;;;;;13.46;62.67;95725.00;5134657;27;20043;-66
2024/02/11 07:56:18;;;;;;;1999.90;999.90;;;;;;;13.79;62.54;95725.59;5134114;27;20484;-67
2024/02/11 07:58:45;;;;;;;1999.90;999.90;;;;;;;14.29;60.51;95731.16;5134541;27;20054;-66
2024/02/11 08:01:12;;;;;;;1999.90;999.90;;;;;;;14.60;59.24;95730.91;5134456;27;20092;-68
2024/02/11 08:03:41;;;;;;;1999.90;999.90;;;;;;;14.85;58.42;95730.13;5134394;27;20071;-65
2024/02/11 08:06:09;;;;;;;1999.90;999.90;;;;;;;14.97;57.34;95733.69;5134314;27;20385;-68
2024/02/11 08:08:37;;;;;;;1999.90;999.90;;;;;;;15.01;57.03;95744.84;5134437;27;20057;-66
2024/02/11 08:11:05;;;;;;;1999.90;999.90;;;;;;;14.99;57.41;95749.41;5134195;27;20043;-68
2024/02/11 08:13:32;;;;;;;1999.90;999.90;;;;;;;14.96;57.70;95739.06;5134420;27;20066;-67
2024/02/11 08:16:00;;;;;;;1999.90;999.90;;;;;;;14.87;58.01;95740.53;5134269;27;20389;-66
2024/02/11 08:18:28;;;;;;;1999.90;999.90;;;;;;;14.74;58.33;95743.13;5134622;27;20047;-64
2024/02/11 08:20:56;;;;;;;1999.90;999.90;;;;;;;14.65;58.52;95741.94;5134264;27;20176;-66
2024/02/11 08:23:25;;;;;;;1999.90;999.90;;;;;;;14.51;58.97;95727.09;5134194;27;20043;-63
2024/02/11 08:25:54;;;;;;;1999.90;999.90;;;;;;;14.40;59.74;95723.41;5134096;27;20047;-66
2024/02/11 08:28:21;;;;;;;1999.90;999.90;;;;;;;14.28;59.98;95735.59;5134056;27;20537;-62
2024/02/11 08:30:49;;;;;;;1999.90;999.90;;;;;;;14.24;60.10;95741.97;5134169;27;20476;-63
2024/02/11 08:33:16;;;;;;;1999.90;999.90;;;;;;;14.13;60.12;95721.66;5134277;27;20262;-65
2024/02/11 08:35:46;;;;;;;1999.90;999.90;;;;;;;14.07;60.75;95713.31;5133837;27;20134;-66
2024/02/11 08:38:13;;;;;;;1999.90;999.90;;;;;;;14.05;60.55;95707.31;5134061;27;20078;-63
2024/02/11 08:40:42;;;;;;;1999.90;999.90;;;;;;;14.08;60.86;95714.97;5133877;27;20047;-66
2024/02/11 08:43:10;;;;;;;1999.90;999.90;;;;;;;14.07;60.51;95708.91;5135188;27;20047;-63
2024/02/11 08:45:37;;;;;;;1999.90;999.90;;;;;;;14.11;60.94;95713.00;5138138;27;20061;-64
2024/02/11 08:48:05;;;;;;;1999.90;999.90;;;;;;;14.19;59.94;95707.25;5138044;27;20046;-67
2024/02/11 08:50:32;;;;;;;1999.90;999.90;;;;;;;14.18;60.07;95709.97;5138028;27;20500;-63
2024/02/11 08:53:00;;;;;;;1999.90;999.90;;;;;;;14.07;60.15;95721.19;5137975;27;20545;-65
2024/02/11 08:55:30;;;;;;;1999.90;999.90;;;;;;;14.03;60.36;95720.56;5137894;27;20043;-67
2024/02/11 08:58:00;;;;;;;1999.90;999.90;;;;;;;14.04;60.67;95727.50;5137652;27;20100;-66
2024/02/11 09:00:29;;;;;;;1999.90;999.90;;;;;;;14.11;60.60;95720.03;5137823;27;20043;-66
2024/02/11 09:02:57;;;;;;;1999.90;999.90;;;;;;;14.19;60.31;95717.78;5137897;27;20403;-68
2024/02/11 09:05:24;;;;;;;1999.90;999.90;;;;;;;14.37;60.30;95717.50;5138001;27;20051;-64
2024/02/11 09:07:51;;;;;;;1999.90;999.90;;;;;;;14.40;59.74;95712.03;5137719;27;20133;-68
2024/02/11 09:10:19;;;;;;;1999.90;999.90;;;;;;;14.50;59.37;95709.63;5137555;27;20050;-67
2024/02/11 09:12:46;;;;;;;1999.90;999.90;;;;;;;14.59;58.66;95721.31;5137688;27;20092;-64
2024/02/11 09:15:16;;;;;;;1999.90;999.90;;;;;;;14.72;58.74;95708.19;5137547;27;20411;-64
2024/02/11 09:17:44;;;;;;;1999.90;999.90;;;;;;;14.85;57.87;95718.75;5137544;27;20070;-66
2024/02/11 09:20:14;;;;;;;1999.90;999.90;;;;;;;15.01;57.47;95713.25;5137562;27;20047;-65
2024/02/11 09:22:41;;;;;;;1999.90;999.90;;;;;;;14.86;57.04;95723.91;5137411;27;20047;-67
2024/02/11 09:25:11;;;;;;;1999.90;999.90;;;;;;;14.80;57.03;95716.41;5137459;27;20043;-64
2024/02/11 09:27:40;;;;;;;1999.90;999.90;;;;;;;14.91;57.26;95708.63;5137386;27;20043;-64
2024/02/11 09:30:11;;;;;;;1999.90;999.90;;;;;;;14.95;56.92;95711.03;5137250;27;20425;-67
2024/02/11 09:32:39;;;;;;;1999.90;999.90;;;;;;;14.89;56.98;95721.06;5137329;27;20387;-65
2024/02/11 09:35:08;;;;;;;1999.90;999.90;;;;;;;15.08;56.88;95725.03;5137187;27;20536;-67
2024/02/11 09:37:35;;;;;;;1999.90;999.90;;;;;;;15.21;56.71;95717.16;5137226;27;20126;-68
2024/02/11 09:40:02;;;;;;;1999.90;999.90;;;;;;;15.36;56.43;95711.75;5137452;27;20487;-63
2024/02/11 09:42:30;;;;;;;1999.90;999.90;;;;;;;15.32;56.39;95690.03;5137179;27;20050;-65
2024/02/11 09:45:01;;;;;;;1999.90;999.90;;;;;;;15.31;55.88;95692.78;5136990;27;20054;-64
2024/02/11 09:47:28;;;;;;;1999.90;999.90;;;;;;;15.28;55.90;95699.09;5136925;27;20049;-65
2024/02/11 09:50:01;;;;;;;1999.90;999.90;;;;;;;15.18;56.44;95698.91;5136840;27;20047;-66
2024/02/11 09:52:29;;;;;;;1999.90;999.90;;;;;;;15.08;56.41;95695.25;5136948;27;20047;-67
2024/02/11 09:54:56;;;;;;;1999.90;999.90;;;;;;;15.03;56.72;95691.13;5135693;27;20050;-65
2024/02/11 09:57:23;;;;;;;1999.90;999.90;;;;;;;14.93;56.91;95692.72;5136601;27;20047;-67
2024/02/11 09:59:51;;;;;;;1999.90;999.90;;;;;;;14.89;57.27;95678.94;5136684;27;20053;-63
2024/02/11 10:02:19;;;;;;;1999.90;999.90;;;;;;;14.96;57.70;95681.97;5136105;27;20039;-67
2024/02/11 10:04:47;;;;;;;1999.90;999.90;;;;;;;15.05;57.39;95682.28;5136492;27;20039;-63
2024/02/11 10:07:24;;;;;;;1999.90;999.90;;;;;;;15.04;57.54;95678.81;5136324;27;20053;-66
2024/02/11 10:09:51;;;;;;;1999.90;999.90;;;;;;;15.28;57.28;95678.03;5136507;27;20051;-67
2024/02/11 10:12:20;;;;;;;1999.90;999.90;;;;;;;15.45;56.58;95684.75;5135823;27;20065;-66
2024/02/11 10:14:54;;;;;;;1999.90;999.90;;;;;;;15.44;55.75;95666.41;5136567;27;20055;-60
2024/02/11 10:17:22;;;;;;;1999.90;999.90;;;;;;;15.39;55.88;95669.38;5135774;27;20051;-60
2024/02/11 10:19:51;;;;;;;1999.90;999.90;;;;;;;15.29;55.87;95670.03;5136319;27;20450;-60
2024/02/11 10:22:21;;;;;;;1999.90;999.90;;;;;;;15.30;56.14;95652.44;5136107;27;20132;-60
2024/02/11 10:24:51;;;;;;;1999.90;999.90;;;;;;;15.25;56.50;95647.47;5136227;27;20043;-60
2024/02/11 10:27:19;;;;;;;1999.90;999.90;;;;;;;15.17;56.77;95639.28;5136133;27;20070;-60
2024/02/11 10:29:47;;;;;;;1999.90;999.90;;;;;;;15.21;56.87;95645.19;5136028;27;20094;-60
2024/02/11 10:32:16;;;;;;;1999.90;999.90;;;;;;;15.10;56.92;95638.88;5136100;27;20385;-61
2024/02/11 10:34:45;;;;;;;1999.90;999.90;;;;;;;15.11;56.91;95648.44;5135707;27;20557;-61
2024/02/11 10:37:13;;;;;;;1999.90;999.90;;;;;;;15.20;56.47;95635.59;5135972;27;20054;-60
2024/02/11 10:39:41;;;;;;;1999.90;999.90;;;;;;;15.15;57.07;95626.22;5135975;27;20104;-61
2024/02/11 10:42:10;;;;;;;1999.90;999.90;;;;;;;15.25;56.50;95617.66;5136163;27;20043;-60
2024/02/11 10:44:39;;;;;;;1999.90;999.90;;;;;;;15.34;56.15;95608.25;5136165;27;20051;-61
2024/02/11 10:47:07;;;;;;;1999.90;999.90;;;;;;;15.32;55.64;95611.00;5135621;27;20484;-61
2024/02/11 10:49:35;;;;;;;1999.90;999.90;;;;;;;15.26;55.72;95611.47;5135695;27;20082;-60
2024/02/11 10:52:07;;;;;;;1999.90;999.90;;;;;;;15.25;55.92;95610.59;5135229;27;20051;-61
2024/02/11 10:54:42;;;;;;;1999.90;999.90;;;;;;;15.33;55.75;95609.22;5135538;27;20128;-66
2024/02/11 10:57:14;;;;;;;1999.90;999.90;;;;;;;15.57;56.20;95597.84;5135462;27;20072;-66
2024/02/11 10:59:47;;;;;;;1999.90;999.90;;;;;;;15.74;55.09;95594.78;5135372;27;20039;-67